Time;durP1;ratioP1;P1;durP2;ratioP2;P2;SDS_P1;SDS_P2;PMS_P1;PMS_P2;Temp;Humidity;BMP_temperature;BMP_pressure;BME280_temperature;BME280_humidity;BME280_pressure;Samples;Min_cycle;Max_cycle;Signal;HPM_P1;HPM_P2
2021/01/09 00:02:05;;;;;;;;;;;1.10;99.90;;;;;;5095966;28;19931;-69
2021/01/09 00:04:31;;;;;;;;;;;1.10;99.90;;;;;;5096050;28;19977;-69
2021/01/09 00:06:57;;;;;;;;;;;1.10;99.90;;;;;;5096597;28;19928;-70
2021/01/09 00:09:23;;;;;;;;;;;1.10;99.90;;;;;;5076931;28;19966;-69
2021/01/09 00:11:49;;;;;;;;;;;1.10;99.90;;;;;;5083750;28;19924;-67
2021/01/09 00:14:16;;;;;;;;;;;1.10;99.90;;;;;;5095998;28;19970;-68
2021/01/09 00:16:45;;;;;;;;;;;1.10;99.90;;;;;;5096094;28;19924;-68
2021/01/09 00:19:10;;;;;;;;;;;1.10;99.90;;;;;;5096262;28;20311;-68
2021/01/09 00:21:37;;;;;;;;;;;1.10;99.90;;;;;;5095260;28;19928;-68
2021/01/09 00:24:05;;;;;;;;;;;1.10;99.90;;;;;;5086493;28;19924;-68
2021/01/09 00:26:31;;;;;;;;;;;1.10;99.90;;;;;;5075414;28;20396;-68
2021/01/09 00:28:57;;;;;;;;;;;1.10;99.90;;;;;;5075962;28;19928;-68
2021/01/09 00:31:23;;;;;;;;;;;1.10;99.90;;;;;;5075033;28;19973;-68
2021/01/09 00:33:49;;;;;;;;;;;1.10;99.90;;;;;;5075955;28;20018;-68
2021/01/09 00:36:15;;;;;;;;;;;1.10;99.90;;;;;;5075540;28;19925;-68
2021/01/09 00:38:41;;;;;;;;;;;1.00;99.90;;;;;;5087600;28;20305;-67
2021/01/09 00:41:08;;;;;;;;;;;1.00;99.90;;;;;;5095363;28;20007;-67
2021/01/09 00:43:34;;;;;;;;;;;1.00;99.90;;;;;;5095579;28;20380;-67
2021/01/09 00:46:00;;;;;;;;;;;1.00;99.90;;;;;;5095353;28;19935;-68
2021/01/09 00:48:26;;;;;;;;;;;1.00;99.90;;;;;;5095602;28;19924;-67
2021/01/09 00:50:52;;;;;;;;;;;1.10;99.90;;;;;;5095183;28;19969;-68
2021/01/09 00:53:18;;;;;;;;;;;1.10;99.90;;;;;;5084424;28;19930;-68
2021/01/09 00:55:45;;;;;;;;;;;1.10;99.90;;;;;;5074916;28;19924;-68
2021/01/09 00:58:11;;;;;;;;;;;1.10;99.90;;;;;;5075418;28;19955;-68
2021/01/09 01:00:37;;;;;;;;;;;1.10;99.90;;;;;;5074473;28;19928;-67
2021/01/09 01:03:04;;;;;;;;;;;1.10;99.90;;;;;;5074659;28;19970;-68
2021/01/09 01:05:30;;;;;;;;;;;1.00;99.90;;;;;;5079325;28;19924;-67
2021/01/09 01:07:56;;;;;;;;;;;1.00;99.90;;;;;;5093421;28;20270;-68
2021/01/09 01:10:22;;;;;;;;;;;1.00;99.90;;;;;;5074464;28;20293;-68
2021/01/09 01:12:48;;;;;;;;;;;1.00;99.90;;;;;;5075339;28;20266;-68
2021/01/09 01:15:16;;;;;;;;;;;1.10;99.90;;;;;;5074764;28;20007;-68
2021/01/09 01:17:46;;;;;;;;;;;1.10;99.90;;;;;;5075007;28;20300;-68
2021/01/09 01:20:13;;;;;;;;;;;1.10;99.90;;;;;;5079080;28;19924;-67
2021/01/09 01:22:39;;;;;;;;;;;1.10;99.90;;;;;;5095108;28;19966;-67
2021/01/09 01:25:05;;;;;;;;;;;1.10;99.90;;;;;;5094587;28;19924;-67
2021/01/09 01:27:31;;;;;;;;;;;1.10;99.90;;;;;;5085174;28;19924;-67
2021/01/09 01:29:57;;;;;;;;;;;1.10;99.90;;;;;;5074734;28;19947;-67
2021/01/09 01:32:24;;;;;;;;;;;1.10;99.90;;;;;;5074783;28;19928;-68
2021/01/09 01:34:50;;;;;;;;;;;1.10;99.90;;;;;;5074495;28;19924;-67
2021/01/09 01:37:15;;;;;;;;;;;1.10;99.90;;;;;;5089159;28;19930;-67
2021/01/09 01:39:41;;;;;;;;;;;1.10;99.90;;;;;;5094487;28;20708;-67
2021/01/09 01:42:08;;;;;;;;;;;1.10;99.90;;;;;;5093932;28;19930;-67
2021/01/09 01:44:34;;;;;;;;;;;1.20;99.90;;;;;;5094505;28;19930;-67
2021/01/09 01:47:00;;;;;;;;;;;1.10;99.90;;;;;;5094295;28;19924;-67
2021/01/09 01:49:27;;;;;;;;;;;1.10;99.90;;;;;;5094155;28;20415;-67
2021/01/09 01:51:53;;;;;;;;;;;1.10;99.90;;;;;;5077966;28;20410;-67
2021/01/09 01:54:19;;;;;;;;;;;1.10;99.90;;;;;;5074062;28;19925;-67
2021/01/09 01:56:47;;;;;;;;;;;1.10;99.90;;;;;;5073986;28;19924;-67
2021/01/09 01:59:13;;;;;;;;;;;1.10;99.90;;;;;;5073947;28;19932;-67
2021/01/09 02:01:40;;;;;;;;;;;1.10;99.90;;;;;;5073496;28;19928;-67
2021/01/09 02:04:15;;;;;;;;;;;1.10;99.90;;;;;;5081758;28;19924;-67
2021/01/09 02:06:43;;;;;;;;;;;1.10;99.90;;;;;;5093161;28;19924;-67
2021/01/09 02:09:12;;;;;;;;;;;1.10;99.90;;;;;;5094183;28;19924;-67
2021/01/09 02:11:40;;;;;;;;;;;1.10;99.90;;;;;;5093756;28;20269;-67
2021/01/09 02:14:08;;;;;;;;;;;1.20;99.90;;;;;;5093140;28;20308;-67
2021/01/09 02:16:35;;;;;;;;;;;1.20;99.90;;;;;;5093407;28;19924;-67
2021/01/09 02:19:01;;;;;;;;;;;1.20;99.90;;;;;;5084438;28;19924;-67
2021/01/09 02:21:30;;;;;;;;;;;1.20;99.90;;;;;;5089964;28;19967;-67
2021/01/09 02:23:57;;;;;;;;;;;1.20;99.90;;;;;;5073724;28;20390;-67
2021/01/09 02:26:23;;;;;;;;;;;1.20;99.90;;;;;;5073574;28;19924;-67
2021/01/09 02:28:49;;;;;;;;;;;1.10;99.90;;;;;;5073497;28;20042;-67
2021/01/09 02:31:17;;;;;;;;;;;1.10;99.90;;;;;;5074304;28;19925;-68
2021/01/09 02:33:43;;;;;;;;;;;1.10;99.90;;;;;;5073302;28;20289;-71
2021/01/09 02:36:09;;;;;;;;;;;0.70;99.90;;;;;;5085317;28;19924;-71
2021/01/09 02:38:36;;;;;;;;;;;1.10;99.90;;;;;;5093514;28;20375;-70
2021/01/09 02:41:04;;;;;;;;;;;0.10;99.90;;;;;;5093327;28;19924;-71
2021/01/09 02:43:30;;;;;;;;;;;1.10;99.90;;;;;;5093474;28;19967;-71
2021/01/09 02:45:56;;;;;;;;;;;1.00;99.90;;;;;;5093370;28;19943;-71
2021/01/09 02:48:22;;;;;;;;;;;1.00;99.90;;;;;;5093345;28;20418;-70
2021/01/09 02:50:48;;;;;;;;;;;1.10;99.90;;;;;;5092936;28;19973;-71
2021/01/09 02:53:14;;;;;;;;;;;1.00;99.90;;;;;;5093509;28;19924;-70
2021/01/09 02:55:40;;;;;;;;;;;1.00;99.90;;;;;;5093176;28;20411;-70
2021/01/09 02:58:06;;;;;;;;;;;1.00;99.90;;;;;;5087221;28;19925;-71
2021/01/09 03:00:32;;;;;;;;;;;1.00;99.90;;;;;;5072551;28;19947;-70
2021/01/09 03:02:58;;;;;;;;;;;1.00;99.90;;;;;;5072739;28;20357;-71
2021/01/09 03:05:26;;;;;;;;;;;1.00;99.90;;;;;;5072257;28;21390;-70
2021/01/09 03:07:52;;;;;;;;;;;1.00;99.90;;;;;;5072825;28;19931;-70
2021/01/09 03:10:18;;;;;;;;;;;1.00;99.90;;;;;;5072528;28;19925;-70
2021/01/09 03:12:44;;;;;;;;;;;1.00;99.90;;;;;;5072719;28;19924;-71
2021/01/09 03:15:11;;;;;;;;;;;0.90;99.90;;;;;;5072773;28;19932;-71
2021/01/09 03:17:37;;;;;;;;;;;0.90;99.90;;;;;;5072538;28;19928;-70
2021/01/09 03:20:04;;;;;;;;;;;1.00;99.90;;;;;;5075699;28;19931;-71
2021/01/09 03:22:30;;;;;;;;;;;1.00;99.90;;;;;;5092868;28;19924;-70
2021/01/09 03:24:56;;;;;;;;;;;0.90;99.90;;;;;;5090348;28;19924;-70
2021/01/09 03:27:22;;;;;;;;;;;0.90;99.90;;;;;;5072469;28;19924;-70
2021/01/09 03:29:48;;;;;;;;;;;0.90;99.90;;;;;;5072053;28;19925;-70
2021/01/09 03:32:15;;;;;;;;;;;0.90;99.90;;;;;;5072726;28;20413;-70
2021/01/09 03:34:41;;;;;;;;;;;0.90;99.90;;;;;;5072564;28;19932;-70
2021/01/09 03:37:07;;;;;;;;;;;0.90;99.90;;;;;;5072423;28;19928;-71
2021/01/09 03:39:33;;;;;;;;;;;0.90;99.90;;;;;;5072522;28;19924;-70
2021/01/09 03:41:59;;;;;;;;;;;0.90;99.90;;;;;;5072271;28;20327;-71
2021/01/09 03:44:25;;;;;;;;;;;0.90;99.90;;;;;;5072362;28;19924;-71
2021/01/09 03:46:51;;;;;;;;;;;0.90;99.90;;;;;;5072231;28;20439;-71
2021/01/09 03:49:18;;;;;;;;;;;1.00;99.90;;;;;;5072528;28;19928;-70
2021/01/09 03:51:44;;;;;;;;;;;1.00;99.90;;;;;;5072197;28;19925;-70
2021/01/09 03:54:10;;;;;;;;;;;1.00;99.90;;;;;;5089156;28;20400;-70
2021/01/09 03:56:36;;;;;;;;;;;1.00;99.90;;;;;;5092220;28;19932;-70
2021/01/09 03:59:02;;;;;;;;;;;1.00;99.90;;;;;;5092550;28;19925;-70
2021/01/09 04:01:28;;;;;;;;;;;1.00;99.90;;;;;;5092271;28;19924;-70
2021/01/09 04:03:54;;;;;;;;;;;1.00;99.90;;;;;;5092443;28;19924;-70
2021/01/09 04:06:21;;;;;;;;;;;1.00;99.90;;;;;;5092526;28;20384;-70
2021/01/09 04:08:47;;;;;;;;;;;1.00;99.90;;;;;;5092221;28;20118;-70
2021/01/09 04:11:13;;;;;;;;;;;1.00;99.90;;;;;;5091723;28;19924;-70
2021/01/09 04:13:39;;;;;;;;;;;1.00;99.90;;;;;;5092145;28;20449;-70
2021/01/09 04:16:05;;;;;;;;;;;1.00;99.90;;;;;;5080199;28;19978;-70
2021/01/09 04:18:31;;;;;;;;;;;1.00;99.90;;;;;;5072260;28;19980;-70
2021/01/09 04:20:57;;;;;;;;;;;1.00;99.90;;;;;;5081074;28;19932;-70
2021/01/09 04:23:24;;;;;;;;;;;1.00;99.90;;;;;;5092191;28;19931;-70
2021/01/09 04:25:50;;;;;;;;;;;1.00;99.90;;;;;;5092153;28;19931;-70
2021/01/09 04:28:16;;;;;;;;;;;1.00;99.90;;;;;;5092011;28;19924;-70
2021/01/09 04:30:42;;;;;;;;;;;1.00;99.90;;;;;;5091989;28;20019;-70
2021/01/09 04:33:08;;;;;;;;;;;1.00;99.90;;;;;;5092061;28;20304;-70
2021/01/09 04:35:34;;;;;;;;;;;1.00;99.90;;;;;;5092143;28;19931;-71
2021/01/09 04:38:00;;;;;;;;;;;1.00;99.90;;;;;;5095085;28;20273;-70
2021/01/09 04:40:27;;;;;;;;;;;1.00;99.90;;;;;;5095684;28;19924;-71
2021/01/09 04:42:53;;;;;;;;;;;1.00;99.90;;;;;;5095579;28;19924;-71
2021/01/09 04:45:19;;;;;;;;;;;1.00;99.90;;;;;;5095977;28;19931;-70
2021/01/09 04:47:47;;;;;;;;;;;1.00;99.90;;;;;;5095904;28;19924;-70
2021/01/09 04:50:14;;;;;;;;;;;1.00;99.90;;;;;;5087665;28;20377;-70
2021/01/09 04:52:40;;;;;;;;;;;0.90;99.90;;;;;;5075359;28;19931;-70
2021/01/09 04:55:06;;;;;;;;;;;0.90;99.90;;;;;;5076170;28;20385;-70
2021/01/09 04:57:33;;;;;;;;;;;0.90;99.90;;;;;;5075217;28;19928;-70
2021/01/09 04:59:59;;;;;;;;;;;0.90;99.90;;;;;;5074980;28;19936;-71
2021/01/09 05:02:26;;;;;;;;;;;0.90;99.90;;;;;;5075267;28;20316;-71
2021/01/09 05:04:52;;;;;;;;;;;0.90;99.90;;;;;;5076587;28;19924;-71
2021/01/09 05:07:19;;;;;;;;;;;0.90;99.90;;;;;;5075207;28;19971;-71
2021/01/09 05:09:45;;;;;;;;;;;1.00;99.90;;;;;;5074825;28;19925;-70
2021/01/09 05:12:11;;;;;;;;;;;1.10;99.90;;;;;;5074736;28;19924;-70
2021/01/09 05:14:38;;;;;;;;;;;1.10;99.90;;;;;;5075379;28;19931;-71
2021/01/09 05:17:04;;;;;;;;;;;1.10;99.90;;;;;;5074912;28;19924;-70
2021/01/09 05:19:30;;;;;;;;;;;1.10;99.90;;;;;;5074898;28;19932;-70
2021/01/09 05:21:57;;;;;;;;;;;1.10;99.90;;;;;;5074447;28;19925;-71
2021/01/09 05:24:23;;;;;;;;;;;1.10;99.90;;;;;;5075027;28;19948;-70
2021/01/09 05:26:49;;;;;;;;;;;1.00;99.90;;;;;;5074630;28;19925;-70
2021/01/09 05:29:16;;;;;;;;;;;1.00;99.90;;;;;;5074766;28;19986;-71
2021/01/09 05:31:43;;;;;;;;;;;1.00;99.90;;;;;;5074476;28;20316;-70
2021/01/09 05:34:09;;;;;;;;;;;1.00;99.90;;;;;;5094441;28;19924;-70
2021/01/09 05:36:37;;;;;;;;;;;1.00;99.90;;;;;;5094487;28;19924;-71
2021/01/09 05:39:03;;;;;;;;;;;1.00;99.90;;;;;;5094993;28;19931;-70
2021/01/09 05:41:29;;;;;;;;;;;1.00;99.90;;;;;;5094289;28;19977;-70
2021/01/09 05:43:58;;;;;;;;;;;0.90;99.90;;;;;;5094807;28;19924;-70
2021/01/09 05:46:25;;;;;;;;;;;1.00;99.90;;;;;;5094835;28;19931;-70
2021/01/09 05:48:52;;;;;;;;;;;1.00;99.90;;;;;;5073749;28;19947;-71
2021/01/09 05:51:18;;;;;;;;;;;1.00;99.90;;;;;;5074019;28;19928;-71
2021/01/09 05:53:45;;;;;;;;;;;1.00;99.90;;;;;;5074873;28;19925;-70
2021/01/09 05:56:11;;;;;;;;;;;1.00;99.90;;;;;;5087933;28;19924;-70
2021/01/09 05:58:38;;;;;;;;;;;1.00;99.90;;;;;;5094468;28;19928;-69
2021/01/09 06:01:05;;;;;;;;;;;1.00;99.90;;;;;;5094186;28;19924;-70
2021/01/09 06:03:36;;;;;;;;;;;1.00;99.90;;;;;;5094269;28;19924;-70
2021/01/09 06:06:06;;;;;;;;;;;1.00;99.90;;;;;;5094232;28;20304;-70
2021/01/09 06:08:32;;;;;;;;;;;1.00;99.90;;;;;;5094194;28;19924;-70
2021/01/09 06:11:02;;;;;;;;;;;1.00;99.90;;;;;;5093543;28;20273;-70
2021/01/09 06:13:31;;;;;;;;;;;1.00;99.90;;;;;;5094040;28;19928;-70
2021/01/09 06:16:03;;;;;;;;;;;1.00;99.90;;;;;;5079298;28;19982;-70
2021/01/09 06:18:29;;;;;;;;;;;1.10;99.90;;;;;;5074014;28;19924;-70
2021/01/09 06:20:55;;;;;;;;;;;1.10;99.90;;;;;;5073284;28;19981;-70
2021/01/09 06:23:22;;;;;;;;;;;1.20;99.90;;;;;;5073737;28;19925;-70
2021/01/09 06:25:50;;;;;;;;;;;3.00;99.90;;;;;;5073793;28;19936;-70
2021/01/09 06:28:20;;;;;;;;;;;1.40;99.90;;;;;;5073555;28;19928;-70
2021/01/09 06:30:51;;;;;;;;;;;1.40;99.90;;;;;;5073117;28;20308;-70
2021/01/09 06:33:19;;;;;;;;;;;1.40;99.90;;;;;;5073254;28;19929;-70
2021/01/09 06:35:45;;;;;;;;;;;1.40;99.90;;;;;;5073508;28;19924;-70
2021/01/09 06:38:11;;;;;;;;;;;1.50;99.90;;;;;;5073223;28;20387;-70
2021/01/09 06:40:38;;;;;;;;;;;1.40;99.90;;;;;;5072975;28;20323;-70
2021/01/09 06:43:04;;;;;;;;;;;1.40;99.90;;;;;;5082051;28;20385;-70
2021/01/09 06:45:30;;;;;;;;;;;1.40;99.90;;;;;;5073176;28;20408;-71
2021/01/09 06:47:57;;;;;;;;;;;1.30;99.90;;;;;;5072983;28;19925;-70
2021/01/09 06:50:30;;;;;;;;;;;1.30;99.90;;;;;;5072987;28;20507;-70
2021/01/09 06:52:56;;;;;;;;;;;1.30;99.90;;;;;;5073206;28;19955;-70
2021/01/09 06:55:37;;;;;;;;;;;1.40;99.90;;;;;;5072981;28;19924;-70
2021/01/09 06:58:04;;;;;;;;;;;1.40;99.90;;;;;;5072651;28;19928;-70
2021/01/09 07:00:30;;;;;;;;;;;1.30;99.90;;;;;;5072091;28;19981;-70
2021/01/09 07:03:09;;;;;;;;;;;1.30;99.90;;;;;;5072992;28;19925;-70
2021/01/09 07:05:42;;;;;;;;;;;1.40;99.90;;;;;;5072888;28;19924;-70
2021/01/09 07:08:08;;;;;;;;;;;1.30;99.90;;;;;;5072678;28;19928;-70
2021/01/09 07:10:42;;;;;;;;;;;1.30;99.90;;;;;;5088088;28;19932;-70
2021/01/09 07:13:10;;;;;;;;;;;1.40;99.90;;;;;;5093020;28;19924;-70
2021/01/09 07:15:36;;;;;;;;;;;1.30;99.90;;;;;;5092900;28;19931;-70
2021/01/09 07:18:03;;;;;;;;;;;1.40;99.90;;;;;;5093000;28;19924;-70
2021/01/09 07:20:32;;;;;;;;;;;1.40;99.90;;;;;;5092637;28;19969;-70
2021/01/09 07:22:59;;;;;;;;;;;1.30;99.90;;;;;;5092634;28;20384;-70
2021/01/09 07:25:30;;;;;;;;;;;1.40;99.90;;;;;;5092328;28;19924;-70
2021/01/09 07:27:57;;;;;;;;;;;1.40;99.90;;;;;;5092984;28;19924;-70
2021/01/09 07:30:25;;;;;;;;;;;1.40;99.90;;;;;;5078733;28;19924;-70
2021/01/09 07:32:52;;;;;;;;;;;1.50;99.90;;;;;;5072446;28;19924;-70
2021/01/09 07:35:22;;;;;;;;;;;1.40;99.90;;;;;;5072424;28;20014;-70
2021/01/09 07:37:50;;;;;;;;;;;1.40;99.90;;;;;;5084122;28;19924;-70
2021/01/09 07:40:18;;;;;;;;;;;1.50;99.90;;;;;;5092044;28;20384;-70
2021/01/09 07:42:44;;;;;;;;;;;1.40;99.90;;;;;;5092594;28;19924;-71
2021/01/09 07:45:11;;;;;;;;;;;1.50;99.90;;;;;;5092305;28;19924;-70
2021/01/09 07:47:39;;;;;;;;;;;1.40;99.90;;;;;;5092375;28;19943;-70
2021/01/09 07:50:06;;;;;;;;;;;1.90;99.90;;;;;;5092079;28;19924;-70
2021/01/09 07:52:33;;;;;;;;;;;1.50;99.90;;;;;;5092248;28;20292;-70
2021/01/09 07:54:59;;;;;;;;;;;1.70;99.90;;;;;;5092440;28;19924;-70
2021/01/09 07:57:25;;;;;;;;;;;1.60;99.90;;;;;;5092499;28;19939;-70
2021/01/09 08:00:01;;;;;;;;;;;1.70;99.90;;;;;;5091898;28;19925;-70
2021/01/09 08:02:28;;;;;;;;;;;1.80;99.90;;;;;;5092205;28;19985;-70
2021/01/09 08:05:02;;;;;;;;;;;1.80;99.90;;;;;;5092081;28;19925;-70
2021/01/09 08:07:28;;;;;;;;;;;1.80;99.90;;;;;;5092395;28;19995;-70
2021/01/09 08:09:54;;;;;;;;;;;1.80;99.90;;;;;;5092038;28;19931;-70
2021/01/09 08:12:25;;;;;;;;;;;1.90;99.90;;;;;;5094228;28;19924;-70
2021/01/09 08:14:51;;;;;;;;;;;1.80;99.90;;;;;;5096302;28;20331;-70
2021/01/09 08:17:17;;;;;;;;;;;1.80;99.90;;;;;;5096153;28;20023;-70
2021/01/09 08:19:43;;;;;;;;;;;1.90;99.90;;;;;;5095657;28;20427;-69
2021/01/09 08:22:10;;;;;;;;;;;2.00;99.90;;;;;;5096108;28;19924;-69
2021/01/09 08:24:36;;;;;;;;;;;2.00;99.90;;;;;;5096028;28;19924;-69
2021/01/09 08:27:02;;;;;;;;;;;2.10;99.90;;;;;;5095977;28;20392;-71
2021/01/09 08:29:28;;;;;;;;;;;2.10;99.90;;;;;;5096265;28;19932;-70
2021/01/09 08:31:55;;;;;;;;;;;2.20;99.90;;;;;;5094167;28;20365;-69
2021/01/09 08:34:22;;;;;;;;;;;2.20;99.90;;;;;;5075947;28;19925;-70
2021/01/09 08:36:48;;;;;;;;;;;2.30;99.90;;;;;;5075802;28;19981;-69
2021/01/09 08:39:15;;;;;;;;;;;2.30;99.90;;;;;;5075641;28;19978;-69
2021/01/09 08:41:41;;;;;;;;;;;2.20;99.90;;;;;;5075217;28;19955;-69
2021/01/09 08:44:08;;;;;;;;;;;2.20;99.90;;;;;;5075357;28;19928;-70
2021/01/09 08:46:34;;;;;;;;;;;2.20;99.90;;;;;;5075364;28;19955;-69
2021/01/09 08:49:00;;;;;;;;;;;2.20;99.90;;;;;;5075234;28;20003;-70
2021/01/09 08:51:29;;;;;;;;;;;2.20;99.90;;;;;;5075071;28;19932;-69
2021/01/09 08:53:56;;;;;;;;;;;2.20;99.90;;;;;;5075535;28;19932;-69
2021/01/09 08:56:23;;;;;;;;;;;2.40;99.90;;;;;;5075133;28;19925;-69
2021/01/09 08:58:49;;;;;;;;;;;2.70;99.90;;;;;;5087394;28;19927;-69
2021/01/09 09:01:21;;;;;;;;;;;2.80;99.90;;;;;;5094964;28;19924;-69
2021/01/09 09:03:48;;;;;;;;;;;2.90;99.90;;;;;;5095320;28;20388;-69
2021/01/09 09:06:15;;;;;;;;;;;3.00;99.90;;;;;;5091528;28;19924;-69
2021/01/09 09:08:41;;;;;;;;;;;3.00;99.90;;;;;;5078343;28;19924;-69
2021/01/09 09:11:07;;;;;;;;;;;3.00;99.90;;;;;;5094960;28;19935;-70
2021/01/09 09:13:34;;;;;;;;;;;2.90;99.90;;;;;;5094834;28;19933;-70
2021/01/09 09:16:15;;;;;;;;;;;2.90;99.90;;;;;;5095290;28;20048;-69
2021/01/09 09:18:41;;;;;;;;;;;2.90;99.90;;;;;;5095188;28;19924;-70
2021/01/09 09:21:08;;;;;;;;;;;2.80;99.90;;;;;;5094843;28;19924;-71
2021/01/09 09:23:34;;;;;;;;;;;2.80;99.90;;;;;;5094569;28;19928;-71
2021/01/09 09:26:07;;;;;;;;;;;2.80;99.90;;;;;;5094653;28;19924;-71
2021/01/09 09:28:44;;;;;;;;;;;2.80;99.90;;;;;;5094676;28;19924;-70
2021/01/09 09:31:17;;;;;;;;;;;2.80;99.90;;;;;;5094409;28;20419;-70
2021/01/09 09:33:54;;;;;;;;;;;2.80;99.90;;;;;;5094710;28;19932;-70
2021/01/09 09:36:20;;;;;;;;;;;2.70;99.90;;;;;;5092040;28;19933;-70
2021/01/09 09:38:46;;;;;;;;;;;2.80;99.90;;;;;;5074552;28;19931;-69
2021/01/09 09:41:12;;;;;;;;;;;2.70;99.90;;;;;;5074234;28;19931;-70
2021/01/09 09:43:38;;;;;;;;;;;2.70;99.90;;;;;;5074364;28;19935;-70
2021/01/09 09:46:05;;;;;;;;;;;2.60;99.90;;;;;;5074321;28;19924;-71
2021/01/09 09:48:32;;;;;;;;;;;2.70;99.90;;;;;;5074161;28;19928;-70
2021/01/09 09:51:02;;;;;;;;;;;2.70;99.90;;;;;;5092932;28;19950;-70
2021/01/09 09:53:28;;;;;;;;;;;2.70;99.90;;;;;;5094631;28;20015;-70
2021/01/09 09:56:09;;;;;;;;;;;2.70;99.90;;;;;;5094097;28;19947;-71
2021/01/09 09:58:35;;;;;;;;;;;2.70;99.90;;;;;;5081987;28;19924;-70
2021/01/09 10:01:01;;;;;;;;;;;2.60;99.90;;;;;;5073610;28;19925;-70
2021/01/09 10:03:35;;;;;;;;;;;2.60;99.90;;;;;;5073608;28;19989;-71
2021/01/09 10:06:01;;;;;;;;;;;2.70;99.90;;;;;;5073767;28;19932;-70
2021/01/09 10:08:29;;;;;;;;;;;2.60;99.90;;;;;;5073984;28;19977;-70
2021/01/09 10:10:55;;;;;;;;;;;2.70;99.90;;;;;;5073559;28;19970;-71
2021/01/09 10:13:24;;;;;;;;;;;2.70;99.90;;;;;;5073964;28;19924;-70
2021/01/09 10:15:50;;;;;;;;;;;2.70;99.90;;;;;;5073742;28;20332;-70
2021/01/09 10:18:16;;;;;;;;;;;2.80;99.90;;;;;;5089616;28;19928;-70
2021/01/09 10:20:43;;;;;;;;;;;2.80;99.90;;;;;;5093435;28;19924;-70
2021/01/09 10:23:09;;;;;;;;;;;2.90;99.90;;;;;;5093747;28;19924;-70
2021/01/09 10:25:35;;;;;;;;;;;2.90;99.90;;;;;;5093929;28;19924;-70
2021/01/09 10:28:01;;;;;;;;;;;3.00;99.90;;;;;;5093758;28;19925;-69
2021/01/09 10:30:27;;;;;;;;;;;3.00;99.90;;;;;;5089064;28;19929;-70
2021/01/09 10:32:53;;;;;;;;;;;3.00;99.90;;;;;;5074411;28;19924;-70
2021/01/09 10:35:19;;;;;;;;;;;3.10;99.90;;;;;;5081884;28;19930;-70
2021/01/09 10:37:47;;;;;;;;;;;3.10;99.90;;;;;;5093569;28;19970;-70
2021/01/09 10:40:13;;;;;;;;;;;3.10;99.90;;;;;;5093186;28;19924;-70
2021/01/09 10:42:39;;;;;;;;;;;3.10;99.90;;;;;;5093441;28;20018;-70
2021/01/09 10:45:06;;;;;;;;;;;3.10;99.90;;;;;;5093432;28;19932;-70
2021/01/09 10:47:32;;;;;;;;;;;3.10;99.90;;;;;;5092829;28;19928;-70
2021/01/09 10:49:58;;;;;;;;;;;3.10;99.90;;;;;;5092982;28;19928;-70
2021/01/09 10:52:24;;;;;;;;;;;3.20;99.90;;;;;;5093075;28;20526;-70
2021/01/09 10:54:51;;;;;;;;;;;3.20;99.90;;;;;;5093242;28;19924;-70
2021/01/09 10:57:17;;;;;;;;;;;3.20;99.90;;;;;;5092928;28;19928;-70
2021/01/09 10:59:43;;;;;;;;;;;3.00;99.90;;;;;;5093527;28;19931;-70
2021/01/09 11:02:09;;;;;;;;;;;3.10;99.90;;;;;;5091988;28;19931;-72
2021/01/09 11:04:35;;;;;;;;;;;3.10;99.90;;;;;;5093258;28;20307;-71
2021/01/09 11:07:01;;;;;;;;;;;3.10;99.90;;;;;;5093203;28;20266;-71
2021/01/09 11:09:27;;;;;;;;;;;3.10;99.90;;;;;;5093187;28;20347;-71
2021/01/09 11:11:54;;;;;;;;;;;3.10;99.90;;;;;;5092695;28;19924;-71
2021/01/09 11:14:20;;;;;;;;;;;3.20;99.90;;;;;;5093273;28;19924;-72
2021/01/09 11:16:46;;;;;;;;;;;3.10;99.90;;;;;;5092808;28;19925;-72
2021/01/09 11:19:12;;;;;;;;;;;3.10;99.90;;;;;;5092694;28;20339;-72
2021/01/09 11:21:38;;;;;;;;;;;3.10;99.90;;;;;;5092533;28;19928;-72
2021/01/09 11:24:04;;;;;;;;;;;3.10;99.90;;;;;;5092861;28;19924;-71
2021/01/09 11:26:30;;;;;;;;;;;3.10;99.90;;;;;;5092778;28;19924;-71
2021/01/09 11:28:58;;;;;;;;;;;3.10;99.90;;;;;;5092441;28;20273;-72
2021/01/09 11:31:24;;;;;;;;;;;3.10;99.90;;;;;;5092405;28;19924;-72
2021/01/09 11:33:50;;;;;;;;;;;3.00;99.90;;;;;;5092822;28;19924;-72
2021/01/09 11:36:17;;;;;;;;;;;3.00;99.90;;;;;;5092666;28;20020;-72
2021/01/09 11:38:43;;;;;;;;;;;3.00;99.90;;;;;;5092593;28;19969;-72
2021/01/09 11:41:09;;;;;;;;;;;3.00;99.90;;;;;;5092197;28;20368;-72
2021/01/09 11:43:36;;;;;;;;;;;3.00;99.90;;;;;;5092345;28;19954;-72
2021/01/09 11:46:05;;;;;;;;;;;3.00;99.90;;;;;;5092635;28;19931;-72
2021/01/09 11:48:31;;;;;;;;;;;3.00;99.90;;;;;;5092517;28;20333;-72
2021/01/09 11:50:57;;;;;;;;;;;3.00;99.90;;;;;;5092151;28;19924;-72
2021/01/09 11:53:23;;;;;;;;;;;3.00;99.90;;;;;;5092507;28;19960;-72
2021/01/09 11:55:49;;;;;;;;;;;3.00;99.90;;;;;;5092256;28;19978;-71
2021/01/09 11:58:15;;;;;;;;;;;3.10;99.90;;;;;;5092128;28;20359;-71
2021/01/09 12:00:41;;;;;;;;;;;3.10;99.90;;;;;;5092122;28;19931;-71
2021/01/09 12:03:11;;;;;;;;;;;3.10;99.90;;;;;;5092252;28;20063;-71
2021/01/09 12:05:37;;;;;;;;;;;3.10;99.90;;;;;;5092366;28;19928;-71
2021/01/09 12:08:03;;;;;;;;;;;3.10;99.90;;;;;;5092259;28;19925;-71
2021/01/09 12:10:30;;;;;;;;;;;3.10;99.90;;;;;;5092006;28;19946;-72
2021/01/09 12:12:56;;;;;;;;;;;3.00;99.90;;;;;;5092175;28;19925;-72
2021/01/09 12:15:22;;;;;;;;;;;2.90;99.90;;;;;;5092411;28;19924;-71
2021/01/09 12:17:48;;;;;;;;;;;2.90;99.90;;;;;;5092225;28;19928;-71
2021/01/09 12:20:14;;;;;;;;;;;2.90;99.90;;;;;;5091928;28;20418;-72
2021/01/09 12:22:41;;;;;;;;;;;2.90;99.90;;;;;;5092035;28;20171;-72
2021/01/09 12:25:07;;;;;;;;;;;2.90;99.90;;;;;;5092022;28;19930;-72
2021/01/09 12:27:33;;;;;;;;;;;3.00;99.90;;;;;;5091860;28;19928;-72
2021/01/09 12:29:59;;;;;;;;;;;3.00;99.90;;;;;;5091753;28;20388;-72
2021/01/09 12:32:25;;;;;;;;;;;3.00;99.90;;;;;;5091888;28;20380;-72
2021/01/09 12:34:51;;;;;;;;;;;3.10;99.90;;;;;;5092056;28;19954;-72
2021/01/09 12:37:18;;;;;;;;;;;3.10;99.90;;;;;;5092054;28;19928;-72
2021/01/09 12:39:44;;;;;;;;;;;3.10;99.90;;;;;;5091827;28;19931;-72
2021/01/09 12:42:10;;;;;;;;;;;3.10;99.90;;;;;;5092151;28;19924;-72
2021/01/09 12:44:36;;;;;;;;;;;3.00;99.90;;;;;;5092067;28;19924;-72
2021/01/09 12:47:02;;;;;;;;;;;3.10;99.90;;;;;;5092114;28;19924;-72
2021/01/09 12:49:28;;;;;;;;;;;3.10;99.90;;;;;;5091752;28;19928;-71
2021/01/09 12:51:56;;;;;;;;;;;3.00;99.90;;;;;;5091334;28;19936;-71
2021/01/09 12:54:23;;;;;;;;;;;3.00;99.90;;;;;;5091633;28;19978;-72
2021/01/09 12:56:52;;;;;;;;;;;3.00;99.90;;;;;;5091715;28;19931;-72
2021/01/09 12:59:18;;;;;;;;;;;3.00;99.90;;;;;;5095206;28;19931;-72
2021/01/09 13:01:45;;;;;;;;;;;3.00;99.90;;;;;;5095176;28;19983;-72
2021/01/09 13:04:11;;;;;;;;;;;3.00;99.90;;;;;;5095584;28;19924;-72
2021/01/09 13:06:37;;;;;;;;;;;3.00;99.90;;;;;;5095244;28;19924;-72
2021/01/09 13:09:04;;;;;;;;;;;3.00;99.90;;;;;;5095238;28;19931;-71
2021/01/09 13:11:31;;;;;;;;;;;3.00;99.90;;;;;;5095238;28;20379;-72
2021/01/09 13:13:57;;;;;;;;;;;3.10;99.90;;;;;;5095344;28;19928;-72
2021/01/09 13:16:23;;;;;;;;;;;3.10;99.90;;;;;;5095259;28;20380;-71
2021/01/09 13:18:49;;;;;;;;;;;3.10;99.90;;;;;;5095325;28;19932;-71
2021/01/09 13:21:15;;;;;;;;;;;3.10;99.90;;;;;;5094755;28;20277;-71
2021/01/09 13:23:41;;;;;;;;;;;3.10;99.90;;;;;;5094825;28;20376;-72
2021/01/09 13:26:07;;;;;;;;;;;3.10;99.90;;;;;;5094925;28;20007;-71
2021/01/09 13:28:34;;;;;;;;;;;3.10;99.90;;;;;;5094768;28;20381;-72
2021/01/09 13:31:00;;;;;;;;;;;3.10;99.90;;;;;;5094654;28;19931;-72
2021/01/09 13:33:26;;;;;;;;;;;3.00;99.90;;;;;;5094925;28;19924;-71
2021/01/09 13:35:53;;;;;;;;;;;3.00;99.90;;;;;;5094939;28;19931;-71
2021/01/09 13:38:19;;;;;;;;;;;3.00;99.90;;;;;;5095219;28;19928;-71
2021/01/09 13:40:45;;;;;;;;;;;3.00;99.90;;;;;;5094204;28;19924;-71
2021/01/09 13:43:11;;;;;;;;;;;3.00;99.90;;;;;;5094414;28;20384;-70
2021/01/09 13:45:38;;;;;;;;;;;2.90;99.90;;;;;;5094747;28;19979;-71
2021/01/09 13:48:04;;;;;;;;;;;2.90;99.90;;;;;;5094542;28;20296;-71
2021/01/09 13:50:30;;;;;;;;;;;2.90;99.90;;;;;;5094378;28;19924;-70
2021/01/09 13:52:56;;;;;;;;;;;2.90;99.90;;;;;;5094682;28;19928;-70
2021/01/09 13:55:22;;;;;;;;;;;2.80;99.90;;;;;;5096321;28;19969;-70
2021/01/09 13:57:49;;;;;;;;;;;2.80;99.90;;;;;;5094245;28;19951;-71
2021/01/09 14:00:16;;;;;;;;;;;2.80;99.90;;;;;;5094328;28;19945;-71
2021/01/09 14:02:44;;;;;;;;;;;2.70;99.90;;;;;;5094254;28;19973;-71
2021/01/09 14:05:11;;;;;;;;;;;2.70;99.90;;;;;;5094258;28;20016;-71
2021/01/09 14:07:37;;;;;;;;;;;2.80;99.90;;;;;;5094203;28;19973;-71
2021/01/09 14:10:04;;;;;;;;;;;2.80;99.90;;;;;;5092595;28;19928;-72
2021/01/09 14:12:30;;;;;;;;;;;2.80;99.90;;;;;;5093839;28;20308;-71
2021/01/09 14:14:56;;;;;;;;;;;2.80;99.90;;;;;;5094325;28;20274;-71
2021/01/09 14:17:22;;;;;;;;;;;2.80;99.90;;;;;;5093983;28;19931;-71
2021/01/09 14:19:49;;;;;;;;;;;2.80;99.90;;;;;;5093758;28;19928;-70
2021/01/09 14:22:15;;;;;;;;;;;2.80;99.90;;;;;;5094048;28;19981;-71
2021/01/09 14:24:41;;;;;;;;;;;2.80;99.90;;;;;;5074916;28;20364;-72
2021/01/09 14:27:07;;;;;;;;;;;2.80;99.90;;;;;;5073512;28;19925;-69
2021/01/09 14:29:34;;;;;;;;;;;2.80;99.90;;;;;;5082369;28;20262;-70